Time;durP1;ratioP1;P1;durP2;ratioP2;P2;SDS_P1;SDS_P2;PMS_P1;PMS_P2;Temp;Humidity;BMP_temperature;BMP_pressure;BME280_temperature;BME280_humidity;BME280_pressure;Samples;Min_cycle;Max_cycle;Signal;HPM_P1;HPM_P2
2023/05/11 00:00:35;;;;;;;18.43;15.10;;;14.40;99.90;;;;;;5071835;28;20438;-75
2023/05/11 00:03:01;;;;;;;18.43;14.53;;;14.30;99.90;;;;;;5076558;28;20176;-75
2023/05/11 00:05:26;;;;;;;22.20;17.30;;;14.30;99.90;;;;;;5056660;28;20207;-76
2023/05/11 00:07:52;;;;;;;22.40;16.20;;;14.30;99.90;;;;;;5071931;28;20180;-75
2023/05/11 00:10:18;;;;;;;21.23;16.97;;;14.30;99.90;;;;;;5076438;28;20262;-75
2023/05/11 00:12:43;;;;;;;22.33;16.87;;;14.20;99.90;;;;;;5075398;28;20172;-74
2023/05/11 00:15:09;;;;;;;21.60;16.90;;;14.20;99.90;;;;;;5072843;28;20197;-73
2023/05/11 00:17:35;;;;;;;21.67;17.97;;;14.30;99.90;;;;;;5044010;28;20208;-76
2023/05/11 00:20:01;;;;;;;25.17;19.37;;;14.30;99.90;;;;;;5070361;28;20427;-75
2023/05/11 00:22:27;;;;;;;21.03;16.40;;;14.30;99.90;;;;;;5065466;28;20548;-75
2023/05/11 00:24:52;;;;;;;20.53;16.77;;;14.30;99.90;;;;;;5072794;28;20424;-75
2023/05/11 00:27:18;;;;;;;21.97;17.60;;;14.30;99.90;;;;;;5072303;28;20405;-75
2023/05/11 00:29:44;;;;;;;22.93;17.93;;;14.20;99.90;;;;;;5076695;28;20184;-75
2023/05/11 00:32:09;;;;;;;23.37;17.67;;;14.30;99.90;;;;;;5073551;28;20191;-75
2023/05/11 00:34:35;;;;;;;20.43;16.90;;;14.30;99.90;;;;;;5060581;28;20265;-75
2023/05/11 00:37:01;;;;;;;21.90;17.10;;;14.30;99.90;;;;;;5073878;28;20208;-75
2023/05/11 00:39:26;;;;;;;22.07;16.67;;;14.30;99.90;;;;;;5054654;28;20724;-75
2023/05/11 00:41:53;;;;;;;22.93;16.37;;;14.30;99.90;;;;;;5074798;28;20200;-76
2023/05/11 00:44:18;;;;;;;18.87;14.93;;;14.30;99.90;;;;;;5074869;28;20189;-74
2023/05/11 00:46:44;;;;;;;17.30;14.60;;;14.30;99.90;;;;;;5072460;28;20518;-75
2023/05/11 00:49:10;;;;;;;22.53;16.20;;;14.30;99.90;;;;;;5072073;28;20669;-74
2023/05/11 00:51:37;;;;;;;18.87;15.33;;;14.30;99.90;;;;;;5051839;28;20637;-75
2023/05/11 00:54:02;;;;;;;18.40;14.77;;;14.30;99.90;;;;;;5045257;28;20415;-74
2023/05/11 00:56:28;;;;;;;19.10;14.87;;;14.20;99.90;;;;;;5059625;28;20451;-75
2023/05/11 00:58:54;;;;;;;17.87;14.87;;;14.20;99.90;;;;;;5047318;28;20914;-75
2023/05/11 01:01:20;;;;;;;24.40;14.40;;;14.20;99.90;;;;;;5047223;28;20707;-75
2023/05/11 01:03:46;;;;;;;18.23;14.70;;;14.20;99.90;;;;;;5048474;28;20704;-75
2023/05/11 01:06:38;;;;;;;21.07;14.00;;;14.20;99.90;;;;;;5048642;28;20184;-74
2023/05/11 01:09:17;;;;;;;16.87;14.50;;;14.20;99.90;;;;;;5051061;28;20935;-74
2023/05/11 01:11:59;;;;;;;17.70;14.00;;;14.20;99.90;;;;;;5067760;28;20474;-76
2023/05/11 01:14:37;;;;;;;19.50;14.67;;;14.20;99.90;;;;;;5068353;28;20411;-75
2023/05/11 01:17:15;;;;;;;17.97;14.93;;;14.20;99.90;;;;;;5068239;28;20577;-75
2023/05/11 01:19:47;;;;;;;20.73;15.20;;;14.20;99.90;;;;;;5050246;28;20777;-75
2023/05/11 01:22:47;;;;;;;20.17;15.10;;;14.10;99.90;;;;;;5032877;28;20433;-75
2023/05/11 01:25:50;;;;;;;20.83;15.70;;;14.20;99.90;;;;;;5068213;28;20412;-75
2023/05/11 01:28:34;;;;;;;19.40;15.80;;;14.20;99.90;;;;;;5050222;28;20407;-75
2023/05/11 01:31:09;;;;;;;20.00;15.07;;;14.20;99.90;;;;;;5050328;28;20427;-75
2023/05/11 01:33:38;;;;;;;19.90;14.60;;;14.10;99.90;;;;;;5068146;28;20845;-75
2023/05/11 01:36:08;;;;;;;20.97;15.90;;;14.10;99.90;;;;;;5068407;28;20449;-75
2023/05/11 01:38:37;;;;;;;21.40;16.17;;;14.10;99.90;;;;;;5050066;28;20403;-74
2023/05/11 01:41:13;;;;;;;22.07;15.73;;;14.20;99.90;;;;;;5050182;28;20435;-75
2023/05/11 01:43:41;;;;;;;21.60;16.17;;;14.10;99.90;;;;;;5067950;28;20497;-74
2023/05/11 01:46:09;;;;;;;22.50;17.10;;;14.10;99.90;;;;;;5049508;28;20968;-75
2023/05/11 01:48:39;;;;;;;19.90;15.90;;;14.10;99.90;;;;;;5067850;28;20767;-75
2023/05/11 01:51:06;;;;;;;21.27;17.13;;;14.10;99.90;;;;;;5050072;28;20427;-75
2023/05/11 01:53:35;;;;;;;22.37;17.00;;;14.20;99.90;;;;;;5068019;28;20407;-75
2023/05/11 01:56:02;;;;;;;19.83;16.70;;;14.10;99.90;;;;;;5067942;28;20411;-75
2023/05/11 01:58:29;;;;;;;25.63;19.10;;;14.10;99.90;;;;;;5067955;28;20404;-75
2023/05/11 02:00:56;;;;;;;24.33;18.20;;;14.10;99.90;;;;;;5067831;28;20455;-75
2023/05/11 02:03:24;;;;;;;22.70;17.57;;;14.10;99.90;;;;;;5067626;28;20411;-75
2023/05/11 02:05:51;;;;;;;24.37;17.97;;;14.10;99.90;;;;;;5067963;28;20404;-75
2023/05/11 02:08:19;;;;;;;25.20;18.30;;;14.10;99.90;;;;;;5067710;28;20981;-75
2023/05/11 02:10:47;;;;;;;25.13;18.07;;;14.10;99.90;;;;;;5067508;28;20450;-75
2023/05/11 02:13:15;;;;;;;23.57;18.87;;;14.00;99.90;;;;;;5066516;28;20458;-75
2023/05/11 02:15:42;;;;;;;23.87;18.47;;;14.00;99.90;;;;;;5067857;28;20400;-75
2023/05/11 02:18:13;;;;;;;24.73;17.70;;;14.00;99.90;;;;;;5049503;28;20461;-75
2023/05/11 02:20:42;;;;;;;26.90;17.87;;;14.00;99.90;;;;;;5067672;28;20499;-75
2023/05/11 02:23:09;;;;;;;22.90;17.27;;;14.00;99.90;;;;;;5068797;28;20510;-75
2023/05/11 02:25:39;;;;;;;24.50;18.80;;;14.00;99.90;;;;;;5071521;28;20419;-75
2023/05/11 02:28:06;;;;;;;20.77;16.40;;;14.00;99.90;;;;;;5053395;28;20423;-75
2023/05/11 02:30:47;;;;;;;25.47;19.13;;;14.00;99.90;;;;;;5071266;28;20435;-75
2023/05/11 02:33:34;;;;;;;26.00;20.23;;;14.00;99.90;;;;;;5070986;28;20426;-75
2023/05/11 02:36:01;;;;;;;29.63;20.70;;;14.00;99.90;;;;;;5053271;28;20579;-75
2023/05/11 02:38:33;;;;;;;27.17;21.13;;;14.00;99.90;;;;;;5071042;28;20473;-75
2023/05/11 02:41:03;;;;;;;26.43;19.40;;;13.90;99.90;;;;;;5071037;28;20909;-75
2023/05/11 02:43:34;;;;;;;27.60;20.00;;;13.90;99.90;;;;;;5071072;28;20446;-75
2023/05/11 02:46:04;;;;;;;25.50;19.57;;;13.90;99.90;;;;;;5071185;28;20422;-75
2023/05/11 02:48:34;;;;;;;27.30;19.80;;;13.90;99.90;;;;;;5070819;28;20408;-75
2023/05/11 02:51:05;;;;;;;27.13;20.13;;;13.90;99.90;;;;;;5070943;28;20451;-75
2023/05/11 02:53:32;;;;;;;27.40;18.90;;;13.90;99.90;;;;;;5070725;28;20407;-75
2023/05/11 02:55:59;;;;;;;30.37;20.17;;;13.90;99.90;;;;;;5070957;28;20403;-75
2023/05/11 02:58:25;;;;;;;25.67;19.00;;;14.00;99.90;;;;;;5070798;28;20481;-75
2023/05/11 03:00:51;;;;;;;29.53;20.77;;;14.00;99.90;;;;;;5070639;28;20427;-75
2023/05/11 03:03:16;;;;;;;24.00;18.83;;;14.00;99.90;;;;;;5070523;28;20568;-75
2023/05/11 03:05:42;;;;;;;28.10;20.20;;;14.00;99.90;;;;;;5070907;28;20177;-75
2023/05/11 03:08:08;;;;;;;26.13;19.73;;;14.00;99.90;;;;;;5070385;28;20195;-75
2023/05/11 03:10:34;;;;;;;26.07;19.83;;;14.00;99.90;;;;;;5070361;28;20293;-75
2023/05/11 03:13:01;;;;;;;25.97;20.60;;;14.00;99.90;;;;;;5070789;28;20184;-75
2023/05/11 03:15:27;;;;;;;26.93;20.57;;;14.00;99.90;;;;;;5070754;28;20930;-75
2023/05/11 03:17:54;;;;;;;28.93;20.60;;;14.00;99.90;;;;;;5052171;28;20463;-75
2023/05/11 03:20:21;;;;;;;26.00;19.53;;;13.90;99.90;;;;;;5070151;28;20434;-75
2023/05/11 03:22:48;;;;;;;25.63;20.33;;;13.90;99.90;;;;;;5069294;28;20911;-75
2023/05/11 03:25:16;;;;;;;27.83;19.90;;;13.90;99.90;;;;;;5070437;28;20404;-75
2023/05/11 03:27:43;;;;;;;26.60;21.03;;;13.90;99.90;;;;;;5052330;28;20419;-75
2023/05/11 03:30:11;;;;;;;26.17;19.67;;;13.90;99.90;;;;;;5070233;28;20946;-75
2023/05/11 03:32:36;;;;;;;26.33;19.50;;;14.00;99.90;;;;;;5070310;28;20530;-75
2023/05/11 03:35:03;;;;;;;25.07;19.80;;;14.00;99.90;;;;;;5069425;28;20490;-75
2023/05/11 03:37:30;;;;;;;25.80;20.03;;;14.00;99.90;;;;;;5069992;28;20266;-75
2023/05/11 03:39:58;;;;;;;31.40;21.00;;;14.00;99.90;;;;;;5070182;28;20443;-75
2023/05/11 03:42:25;;;;;;;31.73;21.87;;;13.90;99.90;;;;;;5052241;28;20778;-75
2023/05/11 03:44:57;;;;;;;32.27;23.30;;;13.90;99.90;;;;;;5069826;28;21085;-75
2023/05/11 03:47:26;;;;;;;30.90;22.50;;;13.90;99.90;;;;;;5069841;28;20416;-75
2023/05/11 03:49:52;;;;;;;29.00;23.03;;;14.00;99.90;;;;;;5069844;28;20414;-75
2023/05/11 03:52:20;;;;;;;27.60;21.50;;;14.00;99.90;;;;;;5069807;28;20816;-75
2023/05/11 03:54:46;;;;;;;32.63;22.10;;;14.00;99.90;;;;;;5051810;28;20407;-75
2023/05/11 03:57:13;;;;;;;31.40;23.90;;;14.00;99.90;;;;;;5069509;28;20462;-75
2023/05/11 03:59:39;;;;;;;33.40;23.30;;;14.00;99.90;;;;;;5069482;28;20892;-75
2023/05/11 04:02:05;;;;;;;29.83;22.83;;;14.00;99.90;;;;;;5069699;28;20442;-75
2023/05/11 04:04:31;;;;;;;29.80;23.80;;;14.00;99.90;;;;;;5069459;28;20291;-75
2023/05/11 04:06:57;;;;;;;28.17;22.67;;;14.00;99.90;;;;;;5069525;28;20506;-75
2023/05/11 04:09:23;;;;;;;29.13;22.50;;;14.00;99.90;;;;;;5069376;28;20174;-75
2023/05/11 04:11:49;;;;;;;30.87;22.37;;;14.00;99.90;;;;;;5069959;28;20457;-75
2023/05/11 04:14:16;;;;;;;32.17;23.90;;;14.00;99.90;;;;;;5069238;28;20773;-75
2023/05/11 04:16:42;;;;;;;34.17;23.47;;;14.00;99.90;;;;;;5069558;28;20455;-75
2023/05/11 04:19:08;;;;;;;31.00;24.43;;;14.00;99.90;;;;;;5069335;28;20927;-75
2023/05/11 04:21:37;;;;;;;30.73;23.60;;;14.00;99.90;;;;;;5051133;28;20427;-75
2023/05/11 04:24:03;;;;;;;29.50;22.87;;;14.00;99.90;;;;;;5069090;28;20184;-75
2023/05/11 04:26:29;;;;;;;29.33;22.93;;;14.00;99.90;;;;;;5069390;28;20407;-75
2023/05/11 04:28:55;;;;;;;32.30;24.33;;;14.00;99.90;;;;;;5069098;28;20417;-75
2023/05/11 04:31:20;;;;;;;33.37;22.80;;;14.00;99.90;;;;;;5068861;28;20438;-74
2023/05/11 04:33:46;;;;;;;33.20;24.33;;;14.00;99.90;;;;;;5069151;28;20177;-75
2023/05/11 04:36:12;;;;;;;32.57;24.00;;;14.00;99.90;;;;;;5069162;28;20205;-75
2023/05/11 04:38:37;;;;;;;33.03;24.60;;;14.00;99.90;;;;;;5051226;28;20166;-75
2023/05/11 04:41:04;;;;;;;32.10;23.97;;;14.00;99.90;;;;;;5068948;28;20246;-75
2023/05/11 04:43:30;;;;;;;31.30;23.90;;;14.00;99.90;;;;;;5068709;28;20705;-75
2023/05/11 04:45:56;;;;;;;34.83;23.43;;;14.00;99.90;;;;;;5068376;28;20491;-75
2023/05/11 04:48:22;;;;;;;30.20;22.90;;;14.00;99.90;;;;;;5069190;28;20480;-75
2023/05/11 04:50:47;;;;;;;33.40;24.80;;;14.00;99.90;;;;;;5066890;28;20208;-75
2023/05/11 04:53:13;;;;;;;30.93;23.10;;;14.00;99.90;;;;;;5066044;28;20177;-75
2023/05/11 04:55:39;;;;;;;31.27;23.83;;;14.00;99.90;;;;;;5059143;28;20716;-75
2023/05/11 04:58:05;;;;;;;32.00;22.80;;;14.00;99.90;;;;;;5059712;28;20240;-74
2023/05/11 05:00:30;;;;;;;31.60;23.50;;;14.00;99.90;;;;;;5065557;28;20484;-75
2023/05/11 05:02:56;;;;;;;32.53;23.43;;;14.00;99.90;;;;;;5059981;28;20623;-74
2023/05/11 05:05:22;;;;;;;31.03;21.63;;;14.00;99.90;;;;;;5068367;28;20184;-74
2023/05/11 05:07:48;;;;;;;30.03;22.63;;;14.00;99.90;;;;;;5068483;28;20219;-74
2023/05/11 05:10:13;;;;;;;29.57;21.87;;;14.00;99.90;;;;;;5068067;28;20557;-74
2023/05/11 05:12:39;;;;;;;32.13;23.33;;;13.90;99.90;;;;;;5055791;28;20188;-75
2023/05/11 05:15:06;;;;;;;30.33;23.00;;;14.00;99.90;;;;;;5066995;28;20207;-75
2023/05/11 05:17:32;;;;;;;32.13;23.07;;;14.00;99.90;;;;;;5066315;28;20463;-74
2023/05/11 05:19:57;;;;;;;26.50;20.97;;;14.00;99.90;;;;;;5060178;28;20497;-75
2023/05/11 05:22:24;;;;;;;30.23;22.37;;;14.00;99.90;;;;;;5052951;28;20638;-74
2023/05/11 05:24:50;;;;;;;29.27;23.37;;;14.00;99.90;;;;;;5030437;28;20177;-74
2023/05/11 05:27:16;;;;;;;29.00;22.03;;;14.10;99.90;;;;;;5048138;28;20423;-74
2023/05/11 05:29:42;;;;;;;27.53;21.50;;;14.10;99.90;;;;;;5061938;28;20549;-74
2023/05/11 05:32:07;;;;;;;27.27;20.43;;;14.10;99.90;;;;;;5064561;28;20601;-74
2023/05/11 05:34:33;;;;;;;30.57;22.10;;;14.10;99.90;;;;;;5049674;28;20188;-74
2023/05/11 05:36:59;;;;;;;30.30;21.83;;;14.10;99.90;;;;;;5033545;28;20244;-74
2023/05/11 05:39:24;;;;;;;27.43;21.17;;;14.10;99.90;;;;;;5050291;28;20184;-74
2023/05/11 05:41:50;;;;;;;28.47;21.70;;;14.10;99.90;;;;;;5063883;28;20198;-74
2023/05/11 05:44:16;;;;;;;29.70;21.87;;;14.10;99.90;;;;;;5047102;28;20300;-74
2023/05/11 05:46:42;;;;;;;32.20;22.50;;;14.10;99.90;;;;;;5049026;28;20498;-74
2023/05/11 05:49:07;;;;;;;32.17;24.77;;;14.10;99.90;;;;;;5066372;28;20562;-74
2023/05/11 05:51:33;;;;;;;32.10;23.40;;;14.10;99.90;;;;;;5052338;28;20229;-74
2023/05/11 05:53:59;;;;;;;29.67;22.50;;;14.10;99.90;;;;;;5052873;28;20193;-74
2023/05/11 05:56:25;;;;;;;35.63;23.10;;;14.10;99.90;;;;;;5046838;28;20205;-74
2023/05/11 05:58:51;;;;;;;29.53;22.37;;;14.10;99.90;;;;;;5053338;28;20504;-74
2023/05/11 06:01:17;;;;;;;28.47;21.23;;;14.10;99.90;;;;;;5048544;28;20449;-74
2023/05/11 06:03:44;;;;;;;30.97;22.50;;;14.10;99.90;;;;;;5047357;28;20185;-74
2023/05/11 06:06:10;;;;;;;30.97;22.13;;;14.10;99.90;;;;;;5069779;28;20200;-74
2023/05/11 06:08:36;;;;;;;29.63;21.80;;;14.10;99.90;;;;;;5065009;28;20420;-74
2023/05/11 06:11:03;;;;;;;30.63;22.27;;;14.10;99.90;;;;;;5071442;28;20501;-74
2023/05/11 06:13:29;;;;;;;31.80;20.87;;;14.10;99.90;;;;;;5071583;28;20939;-74
2023/05/11 06:15:54;;;;;;;30.03;22.67;;;14.20;99.90;;;;;;5071219;28;20173;-74
2023/05/11 06:18:20;;;;;;;34.90;23.70;;;14.20;99.90;;;;;;5052908;28;20184;-74
2023/05/11 06:20:46;;;;;;;30.30;21.37;;;14.30;99.90;;;;;;5070973;28;20217;-74
2023/05/11 06:23:11;;;;;;;32.13;23.17;;;14.30;99.90;;;;;;5070545;28;20192;-74
2023/05/11 06:25:37;;;;;;;31.73;22.23;;;14.30;99.90;;;;;;5051400;28;20217;-74
2023/05/11 06:28:03;;;;;;;32.37;23.70;;;14.30;99.90;;;;;;5062815;28;20213;-74
2023/05/11 06:30:30;;;;;;;31.57;23.33;;;14.30;99.90;;;;;;5068193;28;20283;-74
2023/05/11 06:32:55;;;;;;;29.83;22.37;;;14.40;99.90;;;;;;5058907;28;20173;-74
2023/05/11 06:35:21;;;;;;;33.23;23.30;;;14.40;99.90;;;;;;5070410;28;20411;-74
2023/05/11 06:37:47;;;;;;;33.90;22.90;;;14.50;99.90;;;;;;5070571;28;20561;-74
2023/05/11 06:40:15;;;;;;;32.47;23.67;;;14.60;99.90;;;;;;5052538;28;20419;-74
2023/05/11 06:42:41;;;;;;;35.77;23.50;;;14.60;99.90;;;;;;5069600;28;20252;-74
2023/05/11 06:45:07;;;;;;;32.00;22.57;;;14.60;99.90;;;;;;5070381;28;20407;-74
2023/05/11 06:47:33;;;;;;;31.90;22.30;;;14.70;99.90;;;;;;5070300;28;20415;-74
2023/05/11 06:49:59;;;;;;;30.87;21.40;;;14.70;99.90;;;;;;5071032;28;20453;-74
2023/05/11 06:52:24;;;;;;;32.97;22.20;;;14.80;99.90;;;;;;5071611;28;20301;-74
2023/05/11 06:54:50;;;;;;;31.13;22.20;;;14.80;99.90;;;;;;5052900;28;20892;-74
2023/05/11 06:57:16;;;;;;;31.30;22.87;;;14.90;99.90;;;;;;5052926;28;20240;-74
2023/05/11 06:59:42;;;;;;;33.93;22.50;;;14.90;99.90;;;;;;5070593;28;20173;-74
2023/05/11 07:02:08;;;;;;;29.57;20.87;;;14.90;99.90;;;;;;5070999;28;20250;-74
2023/05/11 07:04:34;;;;;;;29.50;21.10;;;14.90;99.90;;;;;;5070878;28;20411;-74
2023/05/11 07:06:59;;;;;;;29.50;20.40;;;15.00;99.90;;;;;;5070874;28;20181;-74
2023/05/11 07:09:25;;;;;;;27.53;20.40;;;15.00;99.90;;;;;;5051520;28;20521;-74
2023/05/11 07:11:51;;;;;;;29.53;20.40;;;15.00;99.90;;;;;;5070593;28;20217;-74
2023/05/11 07:14:17;;;;;;;29.63;20.07;;;15.00;99.90;;;;;;5070426;28;20185;-74
2023/05/11 07:16:43;;;;;;;28.60;19.67;;;15.10;99.90;;;;;;5052615;28;20463;-74
2023/05/11 07:19:09;;;;;;;29.80;21.03;;;15.20;99.90;;;;;;5070555;28;20410;-74
2023/05/11 07:21:35;;;;;;;28.13;18.90;;;15.30;99.90;;;;;;5070343;28;20220;-74
2023/05/11 07:24:04;;;;;;;27.03;19.13;;;15.40;99.90;;;;;;5052464;28;20543;-74
2023/05/11 07:26:30;;;;;;;27.37;18.80;;;15.40;99.90;;;;;;5070434;28;20788;-74
2023/05/11 07:28:56;;;;;;;28.33;19.13;;;15.40;99.90;;;;;;5070462;28;20441;-74
2023/05/11 07:31:21;;;;;;;27.67;19.43;;;15.40;99.90;;;;;;5052166;28;20661;-74
2023/05/11 07:33:47;;;;;;;28.13;18.50;;;15.40;99.90;;;;;;5052207;28;20188;-74
2023/05/11 07:36:13;;;;;;;28.03;19.93;;;15.40;99.90;;;;;;5070235;28;20233;-74
2023/05/11 07:38:39;;;;;;;27.00;18.93;;;15.50;99.90;;;;;;5035589;28;20267;-74
2023/05/11 07:41:04;;;;;;;30.83;19.30;;;15.40;99.90;;;;;;5070013;28;20245;-74
2023/05/11 07:43:30;;;;;;;26.83;18.27;;;15.50;99.90;;;;;;5069973;28;20435;-74
2023/05/11 07:45:56;;;;;;;29.03;21.07;;;15.60;99.90;;;;;;5070049;28;20660;-74
2023/05/11 07:48:22;;;;;;;24.77;17.10;;;15.60;99.90;;;;;;5051837;28;20181;-74
2023/05/11 07:50:48;;;;;;;26.70;18.67;;;15.60;99.90;;;;;;5069914;28;20208;-74
2023/05/11 07:53:15;;;;;;;25.27;18.57;;;15.70;99.90;;;;;;5069879;28;20173;-74
2023/05/11 07:55:40;;;;;;;22.87;16.63;;;15.80;99.90;;;;;;5051860;28;20420;-74
2023/05/11 07:58:06;;;;;;;30.80;19.23;;;15.80;99.90;;;;;;5069708;28;20453;-74
2023/05/11 08:00:32;;;;;;;27.43;17.80;;;15.80;99.90;;;;;;5069371;28;20185;-74
2023/05/11 08:02:59;;;;;;;24.20;16.83;;;15.70;99.90;;;;;;5069701;28;20412;-74
2023/05/11 08:05:24;;;;;;;24.93;16.37;;;15.70;99.90;;;;;;5069661;28;20408;-74
2023/05/11 08:07:50;;;;;;;21.67;16.60;;;15.80;99.90;;;;;;5069539;28;20423;-74
2023/05/11 08:10:16;;;;;;;22.90;15.97;;;15.80;99.90;;;;;;5051272;28;20221;-74
2023/05/11 08:12:42;;;;;;;20.80;16.60;;;15.80;99.90;;;;;;5051587;28;20188;-74
2023/05/11 08:15:08;;;;;;;21.10;15.80;;;15.80;99.90;;;;;;5069483;28;20173;-74
2023/05/11 08:17:35;;;;;;;22.17;16.50;;;15.80;99.90;;;;;;5051351;28;20200;-74
2023/05/11 08:20:01;;;;;;;20.00;14.80;;;15.80;99.90;;;;;;5069102;28;20497;-74
2023/05/11 08:22:27;;;;;;;22.20;15.50;;;15.80;99.90;;;;;;5069289;28;20412;-74
2023/05/11 08:24:53;;;;;;;20.33;15.73;;;15.80;99.90;;;;;;5069218;28;20400;-74
2023/05/11 08:27:18;;;;;;;21.73;16.20;;;15.80;99.90;;;;;;5051341;28;20183;-74
2023/05/11 08:29:44;;;;;;;20.13;15.57;;;15.80;99.90;;;;;;5068990;28;20260;-74
2023/05/11 08:32:10;;;;;;;18.60;15.07;;;15.90;99.90;;;;;;5069202;28;20165;-74
2023/05/11 08:34:35;;;;;;;20.70;15.80;;;15.90;99.90;;;;;;5069081;28;20185;-74
2023/05/11 08:37:01;;;;;;;21.10;15.33;;;15.80;99.90;;;;;;5067658;28;20669;-74
2023/05/11 08:39:27;;;;;;;19.53;15.67;;;15.90;99.90;;;;;;5050959;28;20218;-74
2023/05/11 08:41:56;;;;;;;21.77;16.10;;;15.90;99.90;;;;;;5049957;28;20431;-74
2023/05/11 08:44:23;;;;;;;16.10;14.40;;;15.90;99.90;;;;;;5068706;28;20404;-75
2023/05/11 08:46:52;;;;;;;17.63;15.30;;;15.90;99.90;;;;;;5068020;28;20941;-75
2023/05/11 08:49:18;;;;;;;20.90;14.93;;;15.90;99.90;;;;;;5068673;28;20836;-75
2023/05/11 08:51:45;;;;;;;16.70;13.90;;;16.00;99.90;;;;;;5068707;28;20863;-75
2023/05/11 08:54:11;;;;;;;17.00;13.90;;;15.90;99.90;;;;;;5067245;28;20787;-75
2023/05/11 08:56:40;;;;;;;18.50;14.87;;;16.00;99.90;;;;;;5050908;28;20490;-75
2023/05/11 08:59:07;;;;;;;18.93;14.53;;;16.00;99.90;;;;;;5068594;28;20941;-75
2023/05/11 09:01:35;;;;;;;17.27;14.07;;;16.00;99.90;;;;;;5068534;28;20447;-75
2023/05/11 09:04:02;;;;;;;18.73;13.73;;;16.10;99.90;;;;;;5068705;28;20430;-75
2023/05/11 09:06:29;;;;;;;16.37;12.70;;;16.10;99.90;;;;;;5068494;28;20422;-75
2023/05/11 09:08:56;;;;;;;15.80;12.60;;;16.20;99.90;;;;;;5068529;28;20842;-75
2023/05/11 09:11:23;;;;;;;13.97;12.47;;;16.20;99.90;;;;;;5068059;28;20538;-75
2023/05/11 09:13:50;;;;;;;12.47;10.80;;;16.30;99.90;;;;;;5050385;28;20491;-75
2023/05/11 09:16:16;;;;;;;15.13;11.73;;;16.40;99.90;;;;;;5068472;28;20853;-75
2023/05/11 09:18:49;;;;;;;15.50;12.00;;;16.50;99.90;;;;;;5050492;28;20836;-75
2023/05/11 09:21:16;;;;;;;13.80;11.57;;;16.50;99.90;;;;;;5068521;28;20522;-75
2023/05/11 09:23:42;;;;;;;16.90;12.67;;;16.60;99.90;;;;;;5050084;28;20414;-75
2023/05/11 09:26:15;;;;;;;15.80;12.93;;;16.60;99.90;;;;;;5050468;28;20466;-75
2023/05/11 09:28:51;;;;;;;14.80;12.30;;;16.60;99.90;;;;;;5050072;28;21063;-75
2023/05/11 09:31:49;;;;;;;15.57;11.60;;;16.60;99.90;;;;;;5068102;28;20438;-75
2023/05/11 09:34:19;;;;;;;14.10;11.60;;;16.70;99.90;;;;;;5012697;28;20459;-75
2023/05/11 09:36:50;;;;;;;14.40;11.73;;;16.60;99.90;;;;;;5068016;28;20450;-75
2023/05/11 09:39:19;;;;;;;13.60;11.00;;;16.60;99.90;;;;;;5068189;28;20422;-75
2023/05/11 09:41:45;;;;;;;19.83;15.90;;;16.60;99.90;;;;;;5067050;28;20424;-75
2023/05/11 09:44:13;;;;;;;19.07;15.03;;;16.60;99.90;;;;;;5049629;28;20413;-75
2023/05/11 09:46:40;;;;;;;18.10;13.20;;;16.60;99.90;;;;;;5068332;28;20177;-75
2023/05/11 09:49:07;;;;;;;16.43;13.73;;;16.60;99.90;;;;;;5068066;28;20407;-75
2023/05/11 09:51:35;;;;;;;16.90;13.67;;;16.60;99.90;;;;;;5067965;28;20920;-75
2023/05/11 09:54:15;;;;;;;16.80;14.43;;;16.60;99.90;;;;;;5067956;28;20412;-75
2023/05/11 09:56:47;;;;;;;16.40;14.60;;;16.60;99.90;;;;;;5050102;28;20541;-75
2023/05/11 09:59:37;;;;;;;20.80;15.73;;;16.60;99.90;;;;;;5049995;28;20416;-75
2023/05/11 10:02:25;;;;;;;23.30;16.80;;;16.60;99.90;;;;;;5068291;28;20936;-75
2023/05/11 10:04:53;;;;;;;23.80;17.73;;;16.60;99.90;;;;;;5067080;28;20928;-75
2023/05/11 10:07:29;;;;;;;24.53;18.03;;;16.50;99.90;;;;;;5064780;28;20419;-75
2023/05/11 10:12:37;;;;;;;25.00;18.60;;;16.50;99.90;;;;;;5029027;28;20479;-79
2023/05/11 10:15:10;;;;;;;24.63;20.10;;;16.50;99.90;;;;;;5030402;28;20442;-78
2023/05/11 10:17:36;;;;;;;24.10;18.23;;;16.50;99.90;;;;;;5028690;28;20579;-78
2023/05/11 10:20:03;;;;;;;25.37;19.13;;;16.40;99.90;;;;;;5028639;28;20443;-79
2023/05/11 10:22:30;;;;;;;25.33;19.70;;;16.30;99.90;;;;;;5025267;28;20441;-77
2023/05/11 10:24:57;;;;;;;24.23;18.37;;;16.30;99.90;;;;;;5027793;28;20424;-79
2023/05/11 10:27:23;;;;;;;25.03;18.30;;;16.30;99.90;;;;;;5027699;28;20409;-79
2023/05/11 10:29:49;;;;;;;23.90;17.43;;;16.30;99.90;;;;;;5029641;28;20463;-78
2023/05/11 10:32:16;;;;;;;23.00;18.23;;;16.30;99.90;;;;;;5028490;28;20472;-78
2023/05/11 10:34:44;;;;;;;23.67;17.67;;;16.30;99.90;;;;;;5034660;28;20413;-78
2023/05/11 10:37:09;;;;;;;23.57;18.30;;;16.30;99.90;;;;;;5038641;28;20822;-78
2023/05/11 10:39:37;;;;;;;26.87;20.13;;;16.30;99.90;;;;;;5039793;28;20444;-77
2023/05/11 10:42:18;;;;;;;22.70;18.10;;;16.20;99.90;;;;;;5040301;28;20437;-79
2023/05/11 10:45:02;;;;;;;21.73;17.30;;;16.20;99.90;;;;;;5024883;28;20432;-78
2023/05/11 10:47:47;;;;;;;23.83;19.00;;;16.20;99.90;;;;;;5039876;28;20482;-79
2023/05/11 10:50:16;;;;;;;28.80;21.33;;;16.30;99.90;;;;;;5039941;28;20416;-79
2023/05/11 10:53:07;;;;;;;26.63;21.70;;;16.30;99.90;;;;;;5040631;28;20428;-79
2023/05/11 10:55:51;;;;;;;25.87;19.00;;;16.30;99.90;;;;;;5044772;28;20429;-78
2023/05/11 10:58:34;;;;;;;28.40;21.23;;;16.30;99.90;;;;;;5043973;28;20483;-79
2023/05/11 11:01:27;;;;;;;29.00;20.50;;;16.20;99.90;;;;;;5044604;28;20429;-79
2023/05/11 11:04:02;;;;;;;26.47;20.70;;;16.20;99.90;;;;;;5042568;28;20428;-78
2023/05/11 11:06:28;;;;;;;25.73;18.97;;;16.30;99.90;;;;;;5040662;28;20511;-77
2023/05/11 11:09:06;;;;;;;26.00;19.70;;;16.30;99.90;;;;;;5037210;28;20501;-77
2023/05/11 11:11:35;;;;;;;18.87;16.13;;;16.30;99.90;;;;;;5037598;28;20555;-78
2023/05/11 11:14:04;;;;;;;18.43;15.63;;;16.30;99.90;;;;;;5037091;28;20508;-77
2023/05/11 11:16:33;;;;;;;19.63;15.90;;;16.30;99.90;;;;;;5037810;28;20469;-79
2023/05/11 11:19:29;;;;;;;16.27;14.30;;;16.30;99.90;;;;;;5038194;28;20413;-77
2023/05/11 11:22:00;;;;;;;15.67;13.03;;;16.30;99.90;;;;;;5038756;28;20500;-78
2023/05/11 11:24:38;;;;;;;16.00;13.20;;;16.30;99.90;;;;;;5037628;28;20830;-77
2023/05/11 11:27:05;;;;;;;15.33;13.30;;;16.30;99.90;;;;;;5019597;28;21037;-78
2023/05/11 11:29:31;;;;;;;15.73;13.30;;;16.30;99.90;;;;;;5037195;28;20445;-79
2023/05/11 11:32:18;;;;;;;13.77;11.40;;;16.30;99.90;;;;;;5038122;28;20441;-79
2023/05/11 11:34:45;;;;;;;13.33;11.47;;;16.30;99.90;;;;;;5035608;28;20898;-80
2023/05/11 11:37:16;;;;;;;14.57;12.97;;;16.30;99.90;;;;;;5033300;28;20461;-80
2023/05/11 11:39:42;;;;;;;16.97;13.27;;;16.30;99.90;;;;;;5015555;28;20495;-80
2023/05/11 11:42:16;;;;;;;15.50;12.20;;;16.30;99.90;;;;;;5033338;28;20498;-80
2023/05/11 11:44:43;;;;;;;13.30;11.70;;;16.30;99.90;;;;;;5033209;28;20458;-80
2023/05/11 11:47:14;;;;;;;14.90;12.10;;;16.30;99.90;;;;;;5032895;28;20420;-79
2023/05/11 11:49:45;;;;;;;13.60;12.20;;;16.40;99.90;;;;;;5032198;28;20518;-79
2023/05/11 11:52:32;;;;;;;15.17;12.20;;;16.40;99.90;;;;;;5033216;28;20883;-79
2023/05/11 11:54:58;;;;;;;14.80;12.07;;;16.40;99.90;;;;;;5032156;28;20433;-80
2023/05/11 11:57:33;;;;;;;13.20;11.90;;;16.50;99.90;;;;;;5032943;28;20527;-80
2023/05/11 12:00:05;;;;;;;15.17;12.10;;;16.50;99.90;;;;;;5032739;28;20412;-80
2023/05/11 12:02:32;;;;;;;16.20;13.13;;;16.50;99.90;;;;;;5031811;28;20429;-79
2023/05/11 12:05:18;;;;;;;13.80;11.57;;;16.60;99.90;;;;;;5032805;28;20417;-80
2023/05/11 12:07:45;;;;;;;16.20;12.90;;;16.60;99.90;;;;;;5031461;28;20443;-80
2023/05/11 12:10:16;;;;;;;15.37;12.23;;;16.60;99.90;;;;;;5032786;28;20515;-80
2023/05/11 12:12:46;;;;;;;14.67;13.17;;;16.70;99.90;;;;;;5033064;28;20425;-80
2023/05/11 12:15:25;;;;;;;13.77;12.37;;;16.70;99.90;;;;;;5032752;28;20413;-79
2023/05/11 12:17:51;;;;;;;14.97;12.43;;;16.70;99.90;;;;;;5033249;28;20630;-80
2023/05/11 12:20:18;;;;;;;13.80;12.40;;;16.80;99.90;;;;;;5033060;28;20523;-80
2023/05/11 12:22:45;;;;;;;15.50;13.30;;;16.80;99.90;;;;;;5033250;28;20174;-79
2023/05/11 12:25:14;;;;;;;19.50;12.83;;;16.90;99.90;;;;;;5033398;28;20472;-80
2023/05/11 12:27:54;;;;;;;21.00;15.00;;;17.00;99.90;;;;;;5015685;28;20425;-80
2023/05/11 12:30:24;;;;;;;21.43;16.90;;;17.00;99.90;;;;;;5033018;28;20502;-80
2023/05/11 12:32:51;;;;;;;20.00;16.13;;;17.10;99.90;;;;;;5032665;28;21229;-80
2023/05/11 12:35:25;;;;;;;14.17;12.60;;;17.10;99.90;;;;;;5033036;28;20516;-80
2023/05/11 12:37:52;;;;;;;17.53;15.73;;;17.10;99.90;;;;;;5033192;28;20868;-79